1851 Tropical Storm NOT_NAMED (1851309N19282)


IBTrACS version v04r00. Visit IBTrACS website for data access.
Please direct all questions to the IBTrACS Q and A forum

Storm track - Intensity - Wind Radii - Intensity Data - Source Data - All data

Summary Information

Storm ID 1851309N19282
Start Nov 4 12Z
Landfall Nov 8 00Z, Nov 10 15Z
Max Intensity 55 kt (Nov 6 00Z)
End Nov 19 12Z
ATCF IDs
Track status Best track data.

Storm track plot

Map of storm track

Intensity plots

Map of storm track

Radial wind information

No radial wind information for this storm


Position and Intensity Table

BASIN ISO_TIME_________ NATURE LAT LON MLC WIND
degrees north degrees east kts
NA 1851-11-04 12:00:00 TS 19.10 -77.60 30
NA 15:00:00 TS 19.04 -77.70 30
NA 18:00:00 TS 19.00 -77.80 30
NA 21:00:00 TS 19.00 -77.89 32
NA 1851-11-05 00:00:00 TS 19.00 -78.00 35
NA 03:00:00 TS 18.96 -78.14 37
NA 06:00:00 TS 18.90 -78.30 40
NA 09:00:00 TS 18.86 -78.46 42
NA 12:00:00 TS 18.80 -78.60 45
NA 15:00:00 TS 18.71 -78.71 47
NA 18:00:00 TS 18.60 -78.80 50
NA 21:00:00 TS 18.51 -78.90 52
NA 1851-11-06 00:00:00 TS 18.40 -79.00 55
NA 03:00:00 TS 18.26 -79.11 55
NA 06:00:00 TS 18.10 -79.20 55
NA 09:00:00 TS 17.94 -79.29 55
NA 12:00:00 TS 17.80 -79.30 55
NA 15:00:00 TS 17.69 -79.17 55
NA 18:00:00 TS 17.60 -79.00 55
NA 21:00:00 TS 17.53 -78.90 55
NA 1851-11-07 00:00:00 TS 17.50 -78.80 55
NA 03:00:00 TS 17.54 -78.66 55
NA 06:00:00 TS 17.60 -78.50 55
NA 09:00:00 TS 17.64 -78.33 55
NA 12:00:00 TS 17.70 -78.20 55
NA 15:00:00 TS 17.78 -78.17 55
NA 18:00:00 TS 17.90 -78.20 55
NA 21:00:00 TS 18.05 -78.25 55
NA 1851-11-08 00:00:00 TS 18.20 -78.30 55
NA 03:00:00 TS 18.30 -78.31 55
NA 06:00:00 TS 18.40 -78.30 55
NA 09:00:00 TS 18.55 -78.29 55
NA 12:00:00 TS 18.70 -78.30 55
NA 15:00:00 TS 18.80 -78.34 55
NA 18:00:00 TS 18.90 -78.40 55
NA 21:00:00 TS 19.03 -78.45 55
NA 1851-11-09 00:00:00 TS 19.20 -78.50 55
NA 03:00:00 TS 19.39 -78.55 55
NA 06:00:00 TS 19.60 -78.60 55
NA 09:00:00 TS 19.82 -78.66 55
NA 12:00:00 TS 20.00 -78.70 55
NA 15:00:00 TS 20.12 -78.67 52
NA 18:00:00 TS 20.20 -78.60 50
NA 21:00:00 TS 20.25 -78.50 47
NA 1851-11-10 00:00:00 TS 20.30 -78.40 45
NA 03:00:00 TS 20.39 -78.35 45
NA 06:00:00 TS 20.50 -78.30 45
NA 09:00:00 TS 20.59 -78.21 45
NA 12:00:00 TS 20.70 -78.10 45
NA 15:00:00 TS 20.88 -78.01 45
NA 18:00:00 TS 21.10 -77.90 45
NA 21:00:00 TS 21.35 -77.76 42
NA 1851-11-11 00:00:00 TS 21.60 -77.60 40
NA 03:00:00 TS 21.80 -77.45 40
NA 06:00:00 TS 22.00 -77.30 40
NA 09:00:00 TS 22.24 -77.15 37
NA 12:00:00 TS 22.50 -77.00 35
NA 15:00:00 TS 22.76 -76.86 35
NA 18:00:00 TS 23.00 -76.70 35
NA 21:00:00 TS 23.20 -76.51 35
NA 1851-11-12 00:00:00 TS 23.40 -76.30 35
NA 03:00:00 TS 23.65 -76.10 35
NA 06:00:00 TS 23.90 -75.90 35
NA 09:00:00 TS 24.08 -75.77 35
NA 12:00:00 TS 24.30 -75.50 35
NA 15:00:00 TS 24.63 -74.93 37
NA 18:00:00 TS 25.00 -74.10 40
NA 21:00:00 TS 25.40 -73.10 40
NA 1851-11-13 00:00:00 TS 25.70 -72.00 40
NA 03:00:00 TS 25.80 -70.95 40
NA 06:00:00 TS 25.80 -70.00 40
NA 09:00:00 TS 25.82 -69.23 40
NA 12:00:00 TS 25.80 -68.50 40
NA 15:00:00 TS 25.71 -67.67 40
NA 18:00:00 TS 25.60 -66.80 40
NA 21:00:00 TS 25.54 -65.91 40
NA 1851-11-14 00:00:00 TS 25.50 -65.00 40
NA 03:00:00 TS 25.45 -64.09 40
NA 06:00:00 TS 25.40 -63.20 40
NA 09:00:00 TS 25.34 -62.35 40
NA 12:00:00 TS 25.30 -61.50 40
NA 15:00:00 TS 25.29 -60.60 42
NA 18:00:00 TS 25.30 -59.70 45
NA 21:00:00 TS 25.29 -58.84 45
NA 1851-11-15 00:00:00 TS 25.30 -58.00 45
NA 03:00:00 TS 25.35 -57.16 45
NA 06:00:00 TS 25.40 -56.30 45
NA 09:00:00 TS 25.39 -55.40 45
NA 12:00:00 TS 25.40 -54.50 45
NA 15:00:00 TS 25.49 -53.65 45
NA 18:00:00 TS 25.60 -52.80 45
NA 21:00:00 TS 25.66 -51.90 45
NA 1851-11-16 00:00:00 TS 25.70 -51.00 45
NA 03:00:00 TS 25.75 -50.15 45
NA 06:00:00 TS 25.80 -49.30 45
NA 09:00:00 TS 25.82 -48.40 45
NA 12:00:00 TS 25.90 -47.50 45
NA 15:00:00 TS 26.13 -46.65 45
NA 18:00:00 TS 26.40 -45.80 45
NA 21:00:00 TS 26.60 -44.90 45
NA 1851-11-17 00:00:00 TS 26.80 -44.00 45
NA 03:00:00 TS 27.05 -43.15 45
NA 06:00:00 TS 27.30 -42.30 45
NA 09:00:00 TS 27.49 -41.37 45
NA 12:00:00 TS 27.70 -40.50 45
NA 15:00:00 TS 28.03 -39.80 45
NA 18:00:00 TS 28.40 -39.20 45
NA 21:00:00 TS 28.75 -38.60 45
NA 1851-11-18 00:00:00 TS 29.10 -38.00 45
NA 03:00:00 TS 29.45 -37.35 42
NA 06:00:00 TS 29.80 -36.70 40
NA 09:00:00 TS 30.10 -36.10 40
NA 12:00:00 TS 30.50 -35.50 40
NA 15:00:00 TS 31.11 -34.85 40
NA 18:00:00 TS 31.80 -34.20 40
NA 21:00:00 TS 32.40 -33.60 40
NA 1851-11-19 00:00:00 TS 33.00 -33.00 40
NA 03:00:00 TS 33.65 -32.32 37
NA 06:00:00 ET 34.30 -31.70 35
NA 09:00:00 ET 34.91 -31.25 35
NA 12:00:00 ET 35.50 -30.90 35

Source Information

Agency Information
USA
TOKYO
CMA
HKO
NEWDELHI
REUNION
BOM
NADI
WELLINGTON
DS824
TD9636
TD9635
NEUMANN
MLC

All available IBTrACS Data

SEASON BASIN SUBBASIN ISO_TIME_________ NATURE LAT LON DIST2LAND LANDFALL IFLAG USA SSHS MLC LAT MLC LON MLC CLASS MLC WIND STORM SPEED STORM DIR
Year degrees north degrees east km km 1 degrees north degrees east kts kts degrees
1851 NA CS 1851-11-04 12:00:00 TS 19.10 -77.60 78 67 _____________O -1 19.10 -77.60 TD 30 2 236
1851 NA CS 15:00:00 TS 19.04 -77.70 67 67 _____________P -1 19.04 -77.70 TD 30 2 242
1851 NA CS 18:00:00 TS 19.00 -77.80 67 67 _____________O -1 19.00 -77.80 TD 30 2 258
1851 NA CS 21:00:00 TS 19.00 -77.89 67 67 _____________P -1 19.00 -77.89 TD 32 2 270
1851 NA CS 1851-11-05 00:00:00 TS 19.00 -78.00 67 67 _____________O -1 19.00 -78.00 TS 35 2 260
1851 NA CS 03:00:00 TS 18.96 -78.14 67 55 _____________P -1 18.96 -78.14 TS 37 3 250
1851 NA CS 06:00:00 TS 18.90 -78.30 55 55 _____________O -1 18.90 -78.30 TS 40 3 251
1851 NA CS 09:00:00 TS 18.86 -78.46 59 49 _____________P -1 18.86 -78.46 TS 42 3 250
1851 NA CS 12:00:00 TS 18.80 -78.60 54 53 _____________O -1 18.80 -78.60 TS 45 3 238
1851 NA CS 15:00:00 TS 18.71 -78.71 53 53 _____________P -1 18.71 -78.71 TS 47 3 224
1851 NA CS 18:00:00 TS 18.60 -78.80 57 57 _____________O -1 18.60 -78.80 TS 50 3 222
1851 NA CS 21:00:00 TS 18.51 -78.90 62 62 _____________P -1 18.51 -78.90 TS 52 3 224
1851 NA CS 1851-11-06 00:00:00 TS 18.40 -79.00 67 64 _____________O -1 18.40 -79.00 TS 55 3 218
1851 NA CS 03:00:00 TS 18.26 -79.11 74 73 _____________P -1 18.26 -79.11 TS 55 4 212
1851 NA CS 06:00:00 TS 18.10 -79.20 85 85 _____________O -1 18.10 -79.20 TS 55 4 208
1851 NA CS 09:00:00 TS 17.94 -79.29 100 100 _____________P -1 17.94 -79.29 TS 55 3 197
1851 NA CS 12:00:00 TS 17.80 -79.30 105 101 _____________O -1 17.80 -79.30 TS 55 3 157
1851 NA CS 15:00:00 TS 17.69 -79.17 101 92 _____________P -1 17.69 -79.17 TS 55 3 125
1851 NA CS 18:00:00 TS 17.60 -79.00 92 85 _____________O -1 17.60 -79.00 TS 55 3 121
1851 NA CS 21:00:00 TS 17.53 -78.90 94 89 _____________P -1 17.53 -78.90 TS 55 2 118
1851 NA CS 1851-11-07 00:00:00 TS 17.50 -78.80 89 84 _____________O -1 17.50 -78.80 TS 55 2 88
1851 NA CS 03:00:00 TS 17.54 -78.66 84 67 _____________P -1 17.54 -78.66 TS 55 3 71
1851 NA CS 06:00:00 TS 17.60 -78.50 67 67 _____________O -1 17.60 -78.50 TS 55 3 71
1851 NA CS 09:00:00 TS 17.64 -78.33 67 54 _____________P -1 17.64 -78.33 TS 55 3 71
1851 NA CS 12:00:00 TS 17.70 -78.20 54 44 _____________O -1 17.70 -78.20 TS 55 2 46
1851 NA CS 15:00:00 TS 17.78 -78.17 44 33 _____________P -1 17.78 -78.17 TS 55 2 8
1851 NA CS 18:00:00 TS 17.90 -78.20 33 22 _____________O -1 17.90 -78.20 TS 55 3 343
1851 NA CS 21:00:00 TS 18.05 -78.25 11 0 _____________P -1 18.05 -78.25 TS 55 3 343
1851 NA CS 1851-11-08 00:00:00 TS 18.20 -78.30 0 0 _____________O -1 18.20 -78.30 TS 55 3 347
1851 NA CS 03:00:00 TS 18.30 -78.31 0 0 _____________P -1 18.30 -78.31 TS 55 2 8
1851 NA CS 06:00:00 TS 18.40 -78.30 0 0 _____________O -1 18.40 -78.30 TS 55 3 2
1851 NA CS 09:00:00 TS 18.55 -78.29 22 11 _____________P -1 18.55 -78.29 TS 55 3 0
1851 NA CS 12:00:00 TS 18.70 -78.30 33 33 _____________O -1 18.70 -78.30 TS 55 3 351
1851 NA CS 15:00:00 TS 18.80 -78.34 44 44 _____________P -1 18.80 -78.34 TS 55 2 333
1851 NA CS 18:00:00 TS 18.90 -78.40 56 56 _____________O -1 18.90 -78.40 TS 55 3 336
1851 NA CS 21:00:00 TS 19.03 -78.45 70 70 _____________P -1 19.03 -78.45 TS 55 3 343
1851 NA CS 1851-11-09 00:00:00 TS 19.20 -78.50 91 91 _____________O -1 19.20 -78.50 TS 55 4 344
1851 NA CS 03:00:00 TS 19.39 -78.55 94 96 _____________P -1 19.39 -78.55 TS 55 4 347
1851 NA CS 06:00:00 TS 19.60 -78.60 96 94 _____________O -1 19.60 -78.60 TS 55 4 346
1851 NA CS 09:00:00 TS 19.82 -78.66 104 104 _____________P -1 19.82 -78.66 TS 55 4 347
1851 NA CS 12:00:00 TS 20.00 -78.70 106 98 _____________O -1 20.00 -78.70 TS 55 3 0
1851 NA CS 15:00:00 TS 20.12 -78.67 98 83 _____________P -1 20.12 -78.67 TS 52 2 27
1851 NA CS 18:00:00 TS 20.20 -78.60 83 76 _____________O -1 20.20 -78.60 TS 50 2 52
1851 NA CS 21:00:00 TS 20.25 -78.50 68 61 _____________P -1 20.25 -78.50 TS 47 2 61
1851 NA CS 1851-11-10 00:00:00 TS 20.30 -78.40 61 53 _____________O -1 20.30 -78.40 TS 45 2 45
1851 NA CS 03:00:00 TS 20.39 -78.35 45 38 _____________P -1 20.39 -78.35 TS 45 2 27
1851 NA CS 06:00:00 TS 20.50 -78.30 38 23 _____________O -1 20.50 -78.30 TS 45 2 35
1851 NA CS 09:00:00 TS 20.59 -78.21 23 10 _____________P -1 20.59 -78.21 TS 45 3 43
1851 NA CS 12:00:00 TS 20.70 -78.10 10 0 _____________O -1 20.70 -78.10 TS 45 3 33
1851 NA NA 15:00:00 TS 20.88 -78.01 0 0 _____________P -1 20.88 -78.01 TS 45 4 25
1851 NA NA 18:00:00 TS 21.10 -77.90 0 0 _____________O -1 21.10 -77.90 TS 45 5 26
1851 NA NA 21:00:00 TS 21.35 -77.76 0 0 _____________P -1 21.35 -77.76 TS 42 6 29
1851 NA NA 1851-11-11 00:00:00 TS 21.60 -77.60 0 0 _____________O -1 21.60 -77.60 TS 40 5 32
1851 NA NA 03:00:00 TS 21.80 -77.45 15 15 _____________P -1 21.80 -77.45 TS 40 5 35
1851 NA NA 06:00:00 TS 22.00 -77.30 33 33 _____________O -1 22.00 -77.30 TS 40 5 32
1851 NA NA 09:00:00 TS 22.24 -77.15 55 55 _____________P -1 22.24 -77.15 TS 37 6 29
1851 NA NA 12:00:00 TS 22.50 -77.00 90 90 _____________O -1 22.50 -77.00 TS 35 6 28
1851 NA NA 15:00:00 TS 22.76 -76.86 124 124 _____________P -1 22.76 -76.86 TS 35 6 29
1851 NA NA 18:00:00 TS 23.00 -76.70 151 151 _____________O -1 23.00 -76.70 TS 35 5 36
1851 NA NA 21:00:00 TS 23.20 -76.51 178 178 _____________P -1 23.20 -76.51 TS 35 5 42
1851 NA NA 1851-11-12 00:00:00 TS 23.40 -76.30 187 180 _____________O -1 23.40 -76.30 TS 35 6 40
1851 NA NA 03:00:00 TS 23.65 -76.10 190 185 _____________P -1 23.65 -76.10 TS 35 6 36
1851 NA NA 06:00:00 TS 23.90 -75.90 194 190 _____________O -1 23.90 -75.90 TS 35 5 35
1851 NA NA 09:00:00 TS 24.08 -75.77 197 197 _____________P -1 24.08 -75.77 TS 35 5 42
1851 NA NA 12:00:00 TS 24.30 -75.50 223 223 _____________O -1 24.30 -75.50 TS 35 9 55
1851 NA NA 15:00:00 TS 24.63 -74.93 283 283 _____________P -1 24.63 -74.93 TS 37 15 61
1851 NA NA 18:00:00 TS 25.00 -74.10 367 367 _____________O -1 25.00 -74.10 TS 40 18 65
1851 NA NA 21:00:00 TS 25.40 -73.10 469 469 _____________P -1 25.40 -73.10 TS 40 20 70
1851 NA NA 1851-11-13 00:00:00 TS 25.70 -72.00 513 513 _____________O -1 25.70 -72.00 TS 40 20 78
1851 NA NA 03:00:00 TS 25.80 -70.95 553 553 _____________P -1 25.80 -70.95 TS 40 18 87
1851 NA NA 06:00:00 TS 25.80 -70.00 598 598 _____________O -1 25.80 -70.00 TS 40 16 89
1851 NA NA 09:00:00 TS 25.82 -69.23 643 643 _____________P -1 25.82 -69.23 TS 40 14 90
1851 NA NA 12:00:00 TS 25.80 -68.50 688 688 _____________O -1 25.80 -68.50 TS 40 14 95
1851 NA NA 15:00:00 TS 25.71 -67.67 721 721 _____________P -1 25.71 -67.67 TS 40 15 97
1851 NA NA 18:00:00 TS 25.60 -66.80 746 746 _____________O -1 25.60 -66.80 TS 40 16 96
1851 NA NA 21:00:00 TS 25.54 -65.91 776 776 _____________P -1 25.54 -65.91 TS 40 16 94
1851 NA NA 1851-11-14 00:00:00 TS 25.50 -65.00 796 796 _____________O -1 25.50 -65.00 TS 40 16 93
1851 NA NA 03:00:00 TS 25.45 -64.09 797 797 _____________P -1 25.45 -64.09 TS 40 16 94
1851 NA NA 06:00:00 TS 25.40 -63.20 820 820 _____________O -1 25.40 -63.20 TS 40 16 94
1851 NA NA 09:00:00 TS 25.34 -62.35 843 843 _____________P -1 25.34 -62.35 TS 40 15 94
1851 NA NA 12:00:00 TS 25.30 -61.50 879 879 _____________O -1 25.30 -61.50 TS 40 16 92
1851 NA NA 15:00:00 TS 25.29 -60.60 927 927 _____________P -1 25.29 -60.60 TS 42 16 90
1851 NA NA 18:00:00 TS 25.30 -59.70 982 982 _____________O -1 25.30 -59.70 TS 45 16 90
1851 NA NA 21:00:00 TS 25.29 -58.84 1042 1042 _____________P -1 25.29 -58.84 TS 45 15 90
1851 NA NA 1851-11-15 00:00:00 TS 25.30 -58.00 1099 1099 _____________O -1 25.30 -58.00 TS 45 15 88
1851 NA NA 03:00:00 TS 25.35 -57.16 1159 1159 _____________P -1 25.35 -57.16 TS 45 15 86
1851 NA NA 06:00:00 TS 25.40 -56.30 1237 1237 _____________O -1 25.40 -56.30 TS 45 16 88
1851 NA NA 09:00:00 TS 25.39 -55.40 1310 1310 _____________P -1 25.39 -55.40 TS 45 16 90
1851 NA NA 12:00:00 TS 25.40 -54.50 1385 1385 _____________O -1 25.40 -54.50 TS 45 16 86
1851 NA NA 15:00:00 TS 25.49 -53.65 1460 1460 _____________P -1 25.49 -53.65 TS 45 15 83
1851 NA NA 18:00:00 TS 25.60 -52.80 1543 1543 _____________O -1 25.60 -52.80 TS 45 16 84
1851 NA NA 21:00:00 TS 25.66 -51.90 1628 1628 _____________P -1 25.66 -51.90 TS 45 16 86
1851 NA NA 1851-11-16 00:00:00 TS 25.70 -51.00 1709 1709 _____________O -1 25.70 -51.00 TS 45 16 87
1851 NA NA 03:00:00 TS 25.75 -50.15 1791 1791 _____________P -1 25.75 -50.15 TS 45 15 86
1851 NA NA 06:00:00 TS 25.80 -49.30 1869 1869 _____________O -1 25.80 -49.30 TS 45 16 87
1851 NA NA 09:00:00 TS 25.82 -48.40 1952 1952 _____________P -1 25.82 -48.40 TS 45 16 86
1851 NA NA 12:00:00 TS 25.90 -47.50 2040 2040 _____________O -1 25.90 -47.50 TS 45 16 79
1851 NA NA 15:00:00 TS 26.13 -46.65 2123 2123 _____________P -1 26.13 -46.65 TS 45 16 72
1851 NA NA 18:00:00 TS 26.40 -45.80 2218 2218 _____________O -1 26.40 -45.80 TS 45 16 73
1851 NA NA 21:00:00 TS 26.60 -44.90 2310 2310 _____________P -1 26.60 -44.90 TS 45 17 76
1851 NA NA 1851-11-17 00:00:00 TS 26.80 -44.00 2348 2343 _____________O -1 26.80 -44.00 TS 45 16 74
1851 NA NA 03:00:00 TS 27.05 -43.15 2355 2344 _____________P -1 27.05 -43.15 TS 45 16 72
1851 NA NA 06:00:00 TS 27.30 -42.30 2351 2351 _____________O -1 27.30 -42.30 TS 45 16 75
1851 NA NA 09:00:00 TS 27.49 -41.37 2363 2321 _____________P -1 27.49 -41.37 TS 45 16 76
1851 NA NA 12:00:00 TS 27.70 -40.50 2321 2249 _____________O -1 27.70 -40.50 TS 45 15 69
1851 NA NA 15:00:00 TS 28.03 -39.80 2249 2186 _____________P -1 28.03 -39.80 TS 45 13 59
1851 NA NA 18:00:00 TS 28.40 -39.20 2186 2125 _____________O -1 28.40 -39.20 TS 45 13 56
1851 NA NA 21:00:00 TS 28.75 -38.60 2125 2064 _____________P -1 28.75 -38.60 TS 45 13 56
1851 NA NA 1851-11-18 00:00:00 TS 29.10 -38.00 2064 2004 _____________O -1 29.10 -38.00 TS 45 13 57
1851 NA NA 03:00:00 TS 29.45 -37.35 1995 1936 _____________P -1 29.45 -37.35 TS 42 13 58
1851 NA NA 06:00:00 TS 29.80 -36.70 1936 1879 _____________O -1 29.80 -36.70 TS 40 13 59
1851 NA NA 09:00:00 TS 30.10 -36.10 1879 1823 _____________P -1 30.10 -36.10 TS 40 13 56
1851 NA NA 12:00:00 TS 30.50 -35.50 1823 1770 _____________O -1 30.50 -35.50 TS 40 15 47
1851 NA NA 15:00:00 TS 31.11 -34.85 1771 1715 _____________P -1 31.11 -34.85 TS 40 17 41
1851 NA NA 18:00:00 TS 31.80 -34.20 1715 1671 _____________O -1 31.80 -34.20 TS 40 17 40
1851 NA NA 21:00:00 TS 32.40 -33.60 1671 1631 _____________P -1 32.40 -33.60 TS 40 16 40
1851 NA NA 1851-11-19 00:00:00 TS 33.00 -33.00 1631 1593 _____________O -1 33.00 -33.00 TS 40 16 41
1851 NA NA 03:00:00 TS 33.65 -32.32 1591 1561 _____________P -1 33.65 -32.32 TS 37 17 40
1851 NA NA 06:00:00 ET 34.30 -31.70 1561 1548 _____________O -1 34.30 -31.70 EX 35 15 35
1851 NA NA 09:00:00 ET 34.91 -31.25 1545 1543 _____________P -1 34.91 -31.25 EX 35 14 29
1851 NA NA 12:00:00 ET 35.50 -30.90 1550 _____________O -1 35.50 -30.90 EX 35 13 26